createdAt,value
2023-05-19T00:01:25.698Z,5.80
2023-05-19T00:03:31.311Z,6.20
2023-05-19T00:05:37.069Z,5.70
2023-05-19T00:07:43.866Z,5.50
2023-05-19T00:09:49.410Z,6.00
2023-05-19T00:11:54.887Z,6.00
2023-05-19T00:14:00.333Z,5.90
2023-05-19T00:16:06.187Z,6.30
2023-05-19T00:18:11.027Z,6.00
2023-05-19T00:20:16.198Z,5.90
2023-05-19T00:22:20.928Z,6.00
2023-05-19T00:24:25.657Z,6.20
2023-05-19T00:26:31.468Z,6.00
2023-05-19T00:28:42.867Z,6.80
2023-05-19T00:30:47.899Z,6.40
2023-05-19T00:32:52.816Z,6.10
2023-05-19T00:34:57.777Z,6.10
2023-05-19T00:37:02.434Z,5.90
2023-05-19T00:39:07.225Z,6.70
2023-05-19T00:41:11.964Z,5.90
2023-05-19T00:43:16.779Z,6.20
2023-05-19T00:45:21.755Z,6.70
2023-05-19T00:47:26.404Z,6.50
2023-05-19T00:49:31.145Z,6.70
2023-05-19T00:51:35.860Z,6.70
2023-05-19T00:53:41.050Z,6.50
2023-05-19T00:55:46.023Z,6.70
2023-05-19T00:57:51.048Z,6.40
2023-05-19T00:59:55.907Z,6.80
2023-05-19T01:02:00.595Z,6.50
2023-05-19T01:05:44.269Z,6.60
2023-05-19T01:07:50.560Z,7.10
2023-05-19T01:09:56.285Z,7.00
2023-05-19T01:12:01.645Z,6.80
2023-05-19T01:14:06.696Z,7.50
2023-05-19T01:16:19.214Z,7.40
2023-05-19T01:18:31.843Z,7.50
2023-05-19T01:20:44.878Z,6.60
2023-05-19T01:23:13.020Z,6.60
2023-05-19T01:26:20.202Z,7.40
2023-05-19T01:29:03.079Z,6.80
2023-05-19T01:31:10.175Z,6.30
2023-05-19T01:33:18.205Z,7.50
2023-05-19T01:35:25.220Z,7.00
